»·PEaware :: SWA2843 KBUR-KLAS

SWA2843 :: KBUR-KLAS

FLIGHT INFORMATION

Flight Status: Arrived
Operator:
Southwest Airlines
More flights by this operator :: More flights under this callsign
Pilot: Walter P. (10403)
Aircraft: BOEING 737-700
(B737)
More flights by this aircraft type
Origin: KBUR Bob Hope-Burbank
United States
Destination: KLAS McCarran Intl
United States
More flights between these airports :: More routes between these airports
Route: +SLAPP1 MISEN KEPEC6
File this flight plan on PilotEdge
Remarks:
Altitude:
(Current/Filed)
27,000ft
Speed:
(Current/Filed)
420kts
Departed: 07-Jan-18 07:20 PM
Arrived: 07-Jan-18 08:06 PM
Distance/Time
Traveled:
194nm/0:45
Distance/Time
To Go:
Arrived

Flight Plot

Page will automatically refresh every two minutes.

Flight plan parsing failed; only flown route is shown


Map Options




Map Legend


Flown Route
Filed Route
Departure Airport
Arrival Airport
Navaid (VOR, NDB)
Fix

Horizontal Profiles

Position Reports

Time Latitude Longitude Heading Altitude Ground
Speed
07-Jan-18 18:41 34.196767 -118.351376 180 728ft 0kts
07-Jan-18 18:42 34.196767 -118.351376 180 728ft 0kts
07-Jan-18 18:43 34.196767 -118.351376 180 728ft 0kts
07-Jan-18 18:44 34.196767 -118.351376 180 728ft 0kts
07-Jan-18 18:45 34.196767 -118.351376 180 728ft 0kts
07-Jan-18 18:46 34.196767 -118.351376 180 728ft 0kts
07-Jan-18 18:47 34.196767 -118.351376 180 728ft 0kts
07-Jan-18 18:48 34.196767 -118.351376 180 728ft 0kts
07-Jan-18 18:49 34.196767 -118.351376 180 728ft 0kts
07-Jan-18 18:50 34.196767 -118.351376 180 728ft 0kts
07-Jan-18 18:51 34.196767 -118.351376 180 728ft 0kts
07-Jan-18 18:52 34.196767 -118.351376 180 728ft 0kts
07-Jan-18 18:53 34.196767 -118.351376 180 728ft 0kts
07-Jan-18 18:54 34.196767 -118.351376 180 728ft 0kts
07-Jan-18 18:55 34.196767 -118.351376 180 728ft 0kts
07-Jan-18 18:56 34.196767 -118.351376 180 728ft 0kts
07-Jan-18 18:57 34.196767 -118.351376 180 728ft 0kts
07-Jan-18 18:58 34.196767 -118.351376 180 728ft 0kts
07-Jan-18 18:59 34.196767 -118.351376 180 728ft 0kts
07-Jan-18 19:00 34.196767 -118.351376 180 728ft 0kts
07-Jan-18 19:01 34.196767 -118.351376 180 728ft 0kts
07-Jan-18 19:02 34.196767 -118.351376 180 728ft 0kts
07-Jan-18 19:03 34.196767 -118.351376 180 728ft 0kts
07-Jan-18 19:04 34.196767 -118.351376 180 728ft 0kts
07-Jan-18 19:05 34.196767 -118.351376 180 728ft 0kts
07-Jan-18 19:06 34.196767 -118.351376 180 728ft 0kts
07-Jan-18 19:07 34.196767 -118.351376 180 728ft 0kts
07-Jan-18 19:08 34.196767 -118.351376 180 728ft 0kts
07-Jan-18 19:09 34.196767 -118.351376 180 728ft 0kts
07-Jan-18 19:10 34.196767 -118.351376 180 728ft 0kts
07-Jan-18 19:11 34.197148 -118.351376 179 728ft 0kts
07-Jan-18 19:12 34.197148 -118.351376 179 728ft 0kts
07-Jan-18 19:13 34.197148 -118.351376 179 728ft 0kts
07-Jan-18 19:14 34.197148 -118.351376 179 728ft 0kts
07-Jan-18 19:15 34.197148 -118.351376 179 728ft 0kts
07-Jan-18 19:16 34.197148 -118.351376 179 728ft 0kts
07-Jan-18 19:17 34.197148 -118.351376 179 728ft 0kts
07-Jan-18 19:18 34.197076 -118.351312 121 728ft 4kts
07-Jan-18 19:19 34.198252 -118.350341 357 728ft 7kts
07-Jan-18 19:20 34.198742 -118.353607 270 728ft 13kts
07-Jan-18 19:21 34.199681 -118.355705 345 728ft 4kts
07-Jan-18 19:22 34.204314 -118.356954 345 728ft 28kts
07-Jan-18 19:23 34.209949 -118.358512 345 728ft 11kts
07-Jan-18 19:24 34.211934 -118.359536 307 728ft 0kts
07-Jan-18 19:25 34.212041 -118.359701 307 728ft 6kts
07-Jan-18 19:26 34.202943 -118.357876 166 729ft 122kts
07-Jan-18 19:27 34.162294 -118.366325 221 2703ft 179kts
07-Jan-18 19:28 34.116968 -118.413478 221 3985ft 231kts
07-Jan-18 19:29 34.069507 -118.464810 221 3996ft 225kts
07-Jan-18 19:30 34.028658 -118.521412 264 4002ft 238kts
07-Jan-18 19:31 34.076440 -118.562694 1 6388ft 254kts
07-Jan-18 19:32 34.149131 -118.559030 2 9790ft 269kts
07-Jan-18 19:33 34.216684 -118.515510 42 12283ft 315kts
07-Jan-18 19:34 34.287914 -118.434607 43 14161ft 375kts
07-Jan-18 19:35 34.365912 -118.345604 44 17239ft 395kts
07-Jan-18 19:36 34.447743 -118.251978 44 19705ft 413kts
07-Jan-18 19:37 34.532798 -118.155109 45 22354ft 428kts
07-Jan-18 19:38 34.621006 -118.053583 45 24545ft 444kts
07-Jan-18 19:39 34.691010 -117.932942 79 26752ft 446kts
07-Jan-18 19:40 34.703181 -117.782325 88 27159ft 446kts
07-Jan-18 19:41 34.709609 -117.631281 89 27160ft 447kts
07-Jan-18 19:42 34.721434 -117.481112 77 27165ft 450kts
07-Jan-18 19:43 34.759604 -117.335643 72 27163ft 451kts
07-Jan-18 19:44 34.798229 -117.190454 73 27174ft 450kts
07-Jan-18 19:45 34.836755 -117.045859 72 27173ft 450kts
07-Jan-18 19:46 34.874963 -116.900236 73 27162ft 451kts
07-Jan-18 19:47 34.904586 -116.786075 72 27161ft 451kts
07-Jan-18 19:48 34.961537 -116.652179 53 27164ft 440kts
07-Jan-18 19:49 35.030895 -116.531103 54 26273ft 430kts
07-Jan-18 19:50 35.098503 -116.411724 52 24329ft 422kts
07-Jan-18 19:51 35.176328 -116.310777 45 24181ft 416kts
07-Jan-18 19:52 35.258311 -116.208056 45 24181ft 423kts
07-Jan-18 19:53 35.340550 -116.104423 45 24180ft 422kts
07-Jan-18 19:54 35.419401 -116.005314 45 23086ft 399kts
07-Jan-18 19:55 35.495866 -115.908890 45 21591ft 388kts
07-Jan-18 19:56 35.569789 -115.814964 46 19820ft 378kts
07-Jan-18 19:57 35.641734 -115.723151 46 18073ft 365kts
07-Jan-18 19:58 35.708859 -115.637442 46 16947ft 339kts
07-Jan-18 19:59 35.783565 -115.574459 9 15338ft 329kts
07-Jan-18 20:00 35.865967 -115.542226 48 13983ft 310kts
07-Jan-18 20:01 35.916298 -115.457934 61 12462ft 301kts
07-Jan-18 20:02 35.956255 -115.368909 61 11017ft 291kts
07-Jan-18 20:03 35.993416 -115.281902 74 9590ft 280kts
07-Jan-18 20:04 36.006405 -115.189641 81 7747ft 269kts
07-Jan-18 20:05 36.014408 -115.103129 91 6665ft 233kts
07-Jan-18 20:06 36.012731 -115.024103 91 5221ft 227kts
07-Jan-18 20:07 36.020010 -114.950674 38 4688ft 215kts
07-Jan-18 20:08 36.066123 -114.969137 301 4313ft 189kts
07-Jan-18 20:09 36.073420 -115.031683 269 3341ft 169kts
07-Jan-18 20:10 36.073250 -115.082698 269 2833ft 146kts
07-Jan-18 20:11 36.073620 -115.132209 267 2124ft 125kts
07-Jan-18 20:12 36.073815 -115.155591 341 2122ft 6kts
07-Jan-18 20:13 36.075635 -115.156631 311 2123ft 12kts
07-Jan-18 20:14 36.077641 -115.158181 355 2123ft 7kts
07-Jan-18 20:15 36.077954 -115.154794 90 2123ft 10kts
07-Jan-18 20:16 36.078683 -115.153040 59 2123ft 3kts
07-Jan-18 20:17 36.078618 -115.149171 94 2123ft 20kts
07-Jan-18 20:18 36.080559 -115.147934 67 2123ft 10kts
07-Jan-18 20:19 36.080685 -115.147520 67 2123ft 0kts
07-Jan-18 20:20 36.080685 -115.147520 67 2123ft 0kts
07-Jan-18 20:21 36.080685 -115.147520 67 2123ft 0kts
07-Jan-18 20:22 36.080685 -115.147520 67 2123ft 0kts

Navigation Log

Ident Type
Flight plan parsing failed, navigation log unavailable